Time;durP1;ratioP1;P1;durP2;ratioP2;P2;SDS_P1;SDS_P2;PMS_P1;PMS_P2;Temp;Humidity;BMP_temperature;BMP_pressure;BME280_temperature;BME280_humidity;BME280_pressure;Samples;Min_cycle;Max_cycle;Signal;HPM_P1;HPM_P2
2021/09/08 00:00:56;;;;;;;13.15;11.95;;;13.70;79.40;;;;;;4935783;29;20083;-71
2021/09/08 00:03:28;;;;;;;14.40;13.10;;;13.80;79.00;;;;;;4937080;29;20075;-72
2021/09/08 00:06:00;;;;;;;14.10;11.77;;;13.80;79.20;;;;;;4936158;29;20113;-71
2021/09/08 00:08:32;;;;;;;13.73;12.45;;;13.80;78.90;;;;;;4934976;29;20134;-70
2021/09/08 00:11:04;;;;;;;14.07;12.77;;;13.70;79.40;;;;;;4936066;29;20492;-71
2021/09/08 00:13:36;;;;;;;13.85;12.45;;;13.70;79.30;;;;;;4936827;29;20697;-72
2021/09/08 00:16:08;;;;;;;13.55;12.35;;;13.70;79.20;;;;;;4935086;29;20083;-71
2021/09/08 00:18:40;;;;;;;13.65;12.35;;;13.70;79.30;;;;;;4937466;29;20051;-71
2021/09/08 00:21:12;;;;;;;13.98;12.75;;;13.70;80.00;;;;;;4935967;29;20067;-71
2021/09/08 00:23:44;;;;;;;13.70;12.40;;;13.60;79.50;;;;;;4934545;29;20204;-71
2021/09/08 00:26:16;;;;;;;13.30;12.15;;;13.60;80.00;;;;;;4935002;29;20056;-70
2021/09/08 00:28:48;;;;;;;13.40;12.13;;;13.60;79.50;;;;;;4934850;29;20043;-71
2021/09/08 00:31:20;;;;;;;13.40;12.20;;;13.60;79.40;;;;;;4938412;29;20536;-71
2021/09/08 00:33:52;;;;;;;15.13;12.48;;;13.60;79.10;;;;;;4937407;29;20126;-70
2021/09/08 00:36:24;;;;;;;13.50;12.30;;;13.60;79.10;;;;;;4933352;29;20078;-72
2021/09/08 00:38:57;;;;;;;13.32;12.13;;;13.60;79.80;;;;;;4935831;29;20075;-72
2021/09/08 00:41:31;;;;;;;14.63;13.23;;;13.50;79.30;;;;;;4932617;29;20051;-70
2021/09/08 00:44:25;;;;;;;14.05;12.77;;;13.50;80.80;;;;;;4934439;29;20058;-71
2021/09/08 00:46:58;;;;;;;13.52;12.32;;;13.50;79.80;;;;;;4949013;29;20410;-72
2021/09/08 00:49:31;;;;;;;15.95;13.40;;;13.40;80.00;;;;;;4932776;29;20059;-72
2021/09/08 00:52:06;;;;;;;14.88;13.23;;;13.30;80.70;;;;;;4935421;29;20051;-71
2021/09/08 00:54:40;;;;;;;13.68;12.40;;;13.30;80.10;;;;;;4937696;29;20059;-71
2021/09/08 00:57:13;;;;;;;13.98;12.77;;;13.20;79.80;;;;;;4935512;29;20104;-71
2021/09/08 00:59:46;;;;;;;13.82;12.45;;;13.10;79.50;;;;;;4936672;29;20055;-71
2021/09/08 01:02:18;;;;;;;14.35;12.88;;;13.20;79.90;;;;;;4935518;29;20613;-71
2021/09/08 01:04:51;;;;;;;13.77;12.45;;;13.20;79.80;;;;;;4935240;29;20059;-71
2021/09/08 01:07:23;;;;;;;13.55;12.25;;;13.20;80.30;;;;;;4934432;29;20836;-70
2021/09/08 01:09:55;;;;;;;13.70;12.50;;;13.10;79.90;;;;;;4936073;29;20143;-71
2021/09/08 01:12:27;;;;;;;13.82;12.57;;;13.10;80.20;;;;;;4932533;29;20562;-69
2021/09/08 01:15:02;;;;;;;13.98;12.63;;;13.10;79.80;;;;;;4933853;29;20899;-71
2021/09/08 01:17:34;;;;;;;12.95;11.65;;;13.10;79.80;;;;;;4935237;29;20047;-71
2021/09/08 01:20:07;;;;;;;13.65;12.35;;;13.00;79.90;;;;;;4935403;29;20123;-69
2021/09/08 01:22:50;;;;;;;12.68;11.57;;;13.00;79.70;;;;;;4933287;29;20134;-69
2021/09/08 01:25:24;;;;;;;13.50;12.10;;;13.00;79.50;;;;;;4934264;29;20100;-69
2021/09/08 01:27:56;;;;;;;13.70;12.40;;;13.00;80.20;;;;;;4933114;29;20105;-71
2021/09/08 01:30:28;;;;;;;13.43;12.23;;;13.00;80.40;;;;;;4933168;29;20094;-71
2021/09/08 01:33:01;;;;;;;13.13;11.93;;;12.90;80.40;;;;;;4935585;29;20052;-71
2021/09/08 01:35:33;;;;;;;13.52;12.23;;;13.00;80.60;;;;;;4935036;29;20059;-70
2021/09/08 01:38:06;;;;;;;13.32;12.13;;;12.90;80.40;;;;;;4934738;29;21273;-71
2021/09/08 01:40:38;;;;;;;12.93;11.80;;;12.90;81.30;;;;;;4934016;29;20161;-72
2021/09/08 01:43:10;;;;;;;14.32;12.95;;;12.90;80.90;;;;;;4936275;29;20078;-71
2021/09/08 01:45:42;;;;;;;13.82;12.52;;;12.80;81.70;;;;;;4933438;29;20083;-71
2021/09/08 01:48:14;;;;;;;14.20;12.90;;;12.80;81.60;;;;;;4934833;29;20062;-71
2021/09/08 01:50:47;;;;;;;13.55;12.35;;;12.80;81.90;;;;;;4920284;29;21501;-71
2021/09/08 01:53:19;;;;;;;13.55;12.35;;;12.80;81.30;;;;;;4934666;29;20136;-70
2021/09/08 01:55:51;;;;;;;13.95;12.65;;;12.70;81.10;;;;;;4933056;29;20169;-70
2021/09/08 01:58:22;;;;;;;13.80;12.50;;;12.70;81.80;;;;;;4921090;29;20174;-71
2021/09/08 02:00:54;;;;;;;13.77;12.45;;;12.60;81.00;;;;;;4932144;29;20798;-70
2021/09/08 02:03:26;;;;;;;13.43;12.23;;;12.60;81.00;;;;;;4933056;29;20052;-71
2021/09/08 02:05:59;;;;;;;13.63;12.23;;;12.70;80.60;;;;;;4933724;29;20059;-71
2021/09/08 02:08:30;;;;;;;13.73;12.43;;;12.70;81.00;;;;;;4925290;29;20066;-70
2021/09/08 02:11:02;;;;;;;13.30;12.10;;;12.60;80.90;;;;;;4934757;29;20749;-70
2021/09/08 02:13:35;;;;;;;13.52;12.40;;;12.70;81.50;;;;;;4933920;29;20514;-72
2021/09/08 02:16:07;;;;;;;13.68;12.40;;;12.60;81.50;;;;;;4919072;29;20055;-72
2021/09/08 02:18:39;;;;;;;14.05;12.75;;;12.60;81.00;;;;;;4934052;29;20052;-70
2021/09/08 02:21:11;;;;;;;14.43;13.13;;;12.60;81.60;;;;;;4932580;29;20105;-71
2021/09/08 02:23:43;;;;;;;13.50;12.20;;;12.60;81.20;;;;;;4936820;29;20100;-71
2021/09/08 02:26:15;;;;;;;14.85;13.50;;;12.60;81.10;;;;;;4931185;29;20164;-72
2021/09/08 02:28:48;;;;;;;13.80;12.32;;;12.60;81.60;;;;;;4935826;29;20060;-72
2021/09/08 02:31:21;;;;;;;13.30;12.15;;;12.60;81.00;;;;;;4931646;29;20055;-72
2021/09/08 02:33:53;;;;;;;13.50;12.18;;;12.50;81.20;;;;;;4934397;29;21082;-71
2021/09/08 02:36:25;;;;;;;14.30;13.00;;;12.50;81.00;;;;;;4931212;29;20116;-70
2021/09/08 02:38:57;;;;;;;13.00;11.80;;;12.50;80.70;;;;;;4933061;29;20048;-71
2021/09/08 02:41:29;;;;;;;14.45;13.15;;;12.50;80.80;;;;;;4930460;29;20079;-72
2021/09/08 02:44:01;;;;;;;13.85;12.65;;;12.50;81.30;;;;;;4933986;29;20058;-72
2021/09/08 02:46:33;;;;;;;14.05;12.65;;;12.40;81.00;;;;;;4931237;29;20051;-72
2021/09/08 02:49:05;;;;;;;14.48;13.02;;;12.40;81.40;;;;;;4919839;29;20070;-72
2021/09/08 02:51:37;;;;;;;14.07;12.77;;;12.30;82.60;;;;;;4929297;29;20058;-71
2021/09/08 02:54:09;;;;;;;14.10;12.80;;;12.20;82.40;;;;;;4934301;29;20157;-71
2021/09/08 02:56:41;;;;;;;14.65;13.35;;;12.10;83.30;;;;;;4933776;29;20146;-72
2021/09/08 02:59:13;;;;;;;13.57;12.23;;;12.00;83.70;;;;;;4930651;29;20062;-72
2021/09/08 03:01:45;;;;;;;13.48;12.18;;;12.00;82.90;;;;;;4931752;29;20044;-72
2021/09/08 03:04:17;;;;;;;12.73;11.57;;;12.00;82.60;;;;;;4937874;29;20487;-71
2021/09/08 03:06:49;;;;;;;12.55;11.38;;;12.00;82.30;;;;;;4935061;29;20058;-70
2021/09/08 03:09:21;;;;;;;13.40;12.20;;;12.10;82.80;;;;;;4936297;29;20169;-71
2021/09/08 03:11:53;;;;;;;13.10;11.95;;;12.10;83.20;;;;;;4951574;29;20054;-72
2021/09/08 03:14:25;;;;;;;12.77;11.57;;;12.00;82.70;;;;;;4938942;29;20124;-72
2021/09/08 03:16:57;;;;;;;13.43;12.05;;;12.00;83.30;;;;;;4936251;29;20058;-72
2021/09/08 03:19:29;;;;;;;12.98;11.80;;;12.00;82.90;;;;;;4936572;29;20055;-72
2021/09/08 03:22:01;;;;;;;13.02;11.88;;;12.00;82.50;;;;;;4934334;29;20162;-72
2021/09/08 03:24:33;;;;;;;13.93;12.15;;;12.00;82.20;;;;;;4937878;29;20039;-71
2021/09/08 03:27:05;;;;;;;12.35;11.18;;;12.00;82.30;;;;;;4936333;29;20056;-71
2021/09/08 03:29:37;;;;;;;12.35;11.15;;;12.00;82.00;;;;;;4943875;29;20467;-71
2021/09/08 03:32:09;;;;;;;13.20;12.00;;;12.10;82.90;;;;;;4936919;29;20064;-71
2021/09/08 03:34:41;;;;;;;13.02;11.88;;;12.00;82.90;;;;;;4934694;29;21074;-70
2021/09/08 03:37:13;;;;;;;13.18;11.88;;;12.10;82.50;;;;;;4935163;29;20135;-71
2021/09/08 03:39:46;;;;;;;13.77;12.48;;;12.00;82.00;;;;;;4934383;29;20172;-72
2021/09/08 03:42:19;;;;;;;12.52;11.32;;;12.00;82.30;;;;;;4933897;29;20079;-71
2021/09/08 03:44:51;;;;;;;12.48;11.30;;;11.90;82.20;;;;;;4938056;29;20039;-72
2021/09/08 03:47:23;;;;;;;13.32;12.13;;;11.80;82.50;;;;;;4934356;29;20052;-71
2021/09/08 03:49:55;;;;;;;12.90;11.80;;;11.80;82.30;;;;;;4935330;29;20140;-70
2021/09/08 03:52:27;;;;;;;12.70;11.40;;;11.80;82.30;;;;;;4933660;29;20062;-71
2021/09/08 03:54:59;;;;;;;13.07;11.88;;;11.80;82.00;;;;;;4920470;29;20051;-72
2021/09/08 03:57:31;;;;;;;13.07;11.77;;;11.80;81.80;;;;;;4937451;29;20051;-71
2021/09/08 04:00:07;;;;;;;12.50;11.20;;;11.80;82.00;;;;;;4937662;29;20156;-71
2021/09/08 04:02:39;;;;;;;12.27;11.10;;;11.80;82.30;;;;;;4936489;29;20058;-71
2021/09/08 04:05:12;;;;;;;13.40;12.00;;;11.80;82.40;;;;;;4936119;29;20166;-71
2021/09/08 04:07:44;;;;;;;12.07;10.98;;;11.80;83.20;;;;;;4935280;29;20142;-72
2021/09/08 04:10:16;;;;;;;13.15;11.80;;;11.80;82.80;;;;;;4933924;29;20457;-72
2021/09/08 04:12:48;;;;;;;12.68;11.43;;;11.80;82.60;;;;;;4934906;29;20126;-71
2021/09/08 04:15:21;;;;;;;12.65;11.45;;;11.80;82.50;;;;;;4936559;29;20423;-72
2021/09/08 04:17:53;;;;;;;12.25;11.05;;;11.80;82.80;;;;;;4936510;29;20472;-72
2021/09/08 04:20:25;;;;;;;12.75;11.57;;;11.80;83.80;;;;;;4935905;29;20121;-72
2021/09/08 04:22:57;;;;;;;12.98;11.38;;;11.80;84.10;;;;;;4933164;29;20062;-72
2021/09/08 04:25:29;;;;;;;15.02;12.10;;;11.60;83.60;;;;;;4935972;29;20083;-72
2021/09/08 04:28:00;;;;;;;13.05;11.18;;;11.60;83.50;;;;;;4934637;29;20056;-72
2021/09/08 04:30:35;;;;;;;12.90;11.70;;;11.60;83.20;;;;;;4937314;29;20143;-70
2021/09/08 04:33:07;;;;;;;13.05;11.70;;;11.60;83.60;;;;;;4919361;30;20143;-70
2021/09/08 04:35:40;;;;;;;11.75;10.55;;;11.60;82.90;;;;;;4934904;29;20066;-72
2021/09/08 04:38:12;;;;;;;12.18;11.05;;;11.60;83.60;;;;;;4918883;30;20075;-72
2021/09/08 04:40:45;;;;;;;12.48;11.38;;;11.60;83.90;;;;;;4934572;29;20048;-72
2021/09/08 04:43:17;;;;;;;12.80;11.43;;;11.70;83.50;;;;;;4932853;29;20053;-73
2021/09/08 04:45:50;;;;;;;12.05;10.95;;;11.70;84.50;;;;;;4935866;29;20716;-72
2021/09/08 04:48:22;;;;;;;11.90;10.80;;;11.70;83.80;;;;;;4949314;29;20083;-72
2021/09/08 04:50:54;;;;;;;12.60;11.27;;;11.70;84.70;;;;;;4935343;29;20060;-71
2021/09/08 04:53:26;;;;;;;11.88;10.68;;;11.70;84.70;;;;;;4942154;29;21028;-72
2021/09/08 04:55:58;;;;;;;11.15;10.15;;;11.60;84.10;;;;;;4939489;29;20051;-73
2021/09/08 04:58:30;;;;;;;11.40;10.20;;;11.60;85.10;;;;;;4921893;30;20051;-73
2021/09/08 05:01:02;;;;;;;11.55;10.55;;;11.60;84.50;;;;;;4934526;29;20047;-72
2021/09/08 05:03:34;;;;;;;11.38;9.60;;;11.60;85.00;;;;;;4934658;29;20526;-73
2021/09/08 05:06:07;;;;;;;11.40;10.30;;;11.70;85.50;;;;;;4931698;29;20128;-71
2021/09/08 05:08:39;;;;;;;11.55;10.45;;;11.60;84.80;;;;;;4929930;29;20089;-72
2021/09/08 05:11:11;;;;;;;13.18;10.70;;;11.60;84.20;;;;;;4934966;29;20062;-72
2021/09/08 05:13:43;;;;;;;13.20;10.65;;;11.60;83.80;;;;;;4941799;29;20525;-72
2021/09/08 05:16:15;;;;;;;11.57;10.32;;;11.60;83.70;;;;;;4932872;29;20051;-72
2021/09/08 05:18:47;;;;;;;11.73;10.52;;;11.60;83.50;;;;;;4934349;29;20071;-70
2021/09/08 05:21:19;;;;;;;12.30;11.05;;;11.70;83.20;;;;;;4935680;29;20110;-72
2021/09/08 05:23:51;;;;;;;12.32;11.02;;;11.60;83.30;;;;;;4936050;29;20082;-72
2021/09/08 05:26:23;;;;;;;12.90;11.55;;;11.70;83.20;;;;;;4932056;29;20051;-71
2021/09/08 05:28:55;;;;;;;12.20;11.07;;;11.70;83.40;;;;;;4933638;29;20075;-71
2021/09/08 05:31:27;;;;;;;11.80;10.52;;;11.80;82.90;;;;;;4933063;29;20065;-71
2021/09/08 05:33:59;;;;;;;11.10;10.10;;;12.00;83.10;;;;;;4935255;29;20485;-71
2021/09/08 05:36:31;;;;;;;12.38;11.27;;;12.10;83.50;;;;;;4932367;29;20392;-73
2021/09/08 05:39:03;;;;;;;12.82;11.50;;;12.20;83.30;;;;;;4923355;30;20146;-73
2021/09/08 05:41:35;;;;;;;12.27;11.13;;;12.30;82.60;;;;;;4932215;29;20052;-73
2021/09/08 05:44:07;;;;;;;12.98;11.00;;;12.30;82.50;;;;;;4934677;29;20587;-72
2021/09/08 05:46:39;;;;;;;11.60;10.60;;;12.50;82.30;;;;;;4932618;29;20109;-71
2021/09/08 05:49:12;;;;;;;12.05;10.95;;;12.60;82.20;;;;;;4933189;29;20142;-72
2021/09/08 05:51:44;;;;;;;11.90;10.80;;;12.70;81.90;;;;;;4935169;29;20135;-73
2021/09/08 05:54:16;;;;;;;12.43;10.77;;;12.90;82.00;;;;;;4935166;29;20116;-73
2021/09/08 05:56:48;;;;;;;11.73;10.63;;;13.00;81.70;;;;;;4931136;29;20047;-72
2021/09/08 05:59:19;;;;;;;12.88;11.52;;;13.20;81.70;;;;;;4935067;29;20056;-71
2021/09/08 06:01:53;;;;;;;12.52;11.20;;;13.30;81.50;;;;;;4933534;29;20520;-73
2021/09/08 06:04:26;;;;;;;12.30;11.20;;;13.40;81.10;;;;;;4947142;29;20053;-72
2021/09/08 06:06:58;;;;;;;12.50;11.25;;;13.50;81.40;;;;;;4933898;29;20133;-72
2021/09/08 06:09:30;;;;;;;12.07;10.98;;;13.60;81.30;;;;;;4935803;29;20504;-72
2021/09/08 06:12:03;;;;;;;13.18;10.73;;;13.80;81.20;;;;;;4934178;29;20087;-73
2021/09/08 06:14:35;;;;;;;16.17;11.57;;;13.90;81.40;;;;;;4936732;29;20052;-72
2021/09/08 06:17:07;;;;;;;17.15;11.82;;;14.00;81.30;;;;;;4914612;29;20044;-72
2021/09/08 06:19:39;;;;;;;12.57;11.48;;;14.20;81.20;;;;;;4932472;29;20043;-72
2021/09/08 06:22:11;;;;;;;12.98;11.68;;;14.30;80.80;;;;;;4931231;29;20071;-73
2021/09/08 06:24:42;;;;;;;12.50;11.40;;;14.50;81.50;;;;;;4932478;29;20075;-71
2021/09/08 06:27:14;;;;;;;13.45;11.98;;;14.50;80.70;;;;;;4933409;29;20464;-72
2021/09/08 06:29:46;;;;;;;12.27;11.07;;;14.60;80.40;;;;;;4930726;29;20059;-72
2021/09/08 06:32:19;;;;;;;11.63;10.60;;;14.80;80.10;;;;;;4931109;29;20051;-72
2021/09/08 06:34:50;;;;;;;11.65;10.65;;;14.80;79.90;;;;;;4933048;29;20047;-73
2021/09/08 06:37:22;;;;;;;12.70;11.60;;;14.90;79.40;;;;;;4933778;29;20108;-72
2021/09/08 06:39:56;;;;;;;13.30;12.00;;;15.00;79.70;;;;;;4932663;29;20051;-72
2021/09/08 06:42:28;;;;;;;15.18;11.85;;;15.20;80.20;;;;;;4934141;29;20047;-72
2021/09/08 06:45:05;;;;;;;16.30;12.50;;;15.40;79.90;;;;;;4934511;29;20180;-72
2021/09/08 06:47:37;;;;;;;12.77;11.68;;;15.50;80.00;;;;;;4932484;29;20048;-72
2021/09/08 06:50:09;;;;;;;13.20;11.98;;;15.60;79.50;;;;;;4933325;29;20087;-72
2021/09/08 06:52:41;;;;;;;12.52;11.40;;;15.70;79.50;;;;;;4941108;29;20108;-72
2021/09/08 06:55:13;;;;;;;13.77;12.30;;;15.80;79.60;;;;;;4933604;29;20062;-71
2021/09/08 06:57:45;;;;;;;12.80;11.70;;;16.00;79.40;;;;;;4933523;29;20557;-72
2021/09/08 07:00:17;;;;;;;13.35;12.23;;;16.10;79.40;;;;;;4932340;29;20136;-72
2021/09/08 07:02:49;;;;;;;13.18;12.13;;;16.20;78.10;;;;;;4933802;29;20051;-71
2021/09/08 07:05:21;;;;;;;13.45;12.27;;;16.30;78.40;;;;;;4933428;29;20047;-72
2021/09/08 07:07:53;;;;;;;12.60;11.60;;;16.40;78.00;;;;;;4933537;29;20083;-72
2021/09/08 07:10:25;;;;;;;13.13;12.02;;;16.60;77.30;;;;;;4934164;29;20049;-72
2021/09/08 07:12:57;;;;;;;13.02;11.93;;;16.70;76.50;;;;;;4933905;29;20514;-72
2021/09/08 07:15:29;;;;;;;13.20;11.90;;;16.80;77.80;;;;;;4933974;29;20573;-72
2021/09/08 07:18:02;;;;;;;12.82;11.63;;;16.90;74.20;;;;;;4934628;29;20474;-72
2021/09/08 07:20:34;;;;;;;13.20;11.80;;;16.90;75.40;;;;;;4933899;29;20044;-73
2021/09/08 07:23:07;;;;;;;14.20;12.27;;;17.10;75.10;;;;;;4935722;29;20056;-72
2021/09/08 07:25:39;;;;;;;13.23;12.07;;;17.20;74.40;;;;;;4932057;29;20051;-71
2021/09/08 07:28:11;;;;;;;13.10;11.90;;;17.40;74.10;;;;;;4922469;29;20605;-71
2021/09/08 07:30:45;;;;;;;13.50;12.20;;;17.40;72.30;;;;;;4934568;29;20051;-72
2021/09/08 07:33:24;;;;;;;13.18;12.07;;;17.50;71.60;;;;;;4918728;30;21100;-72
2021/09/08 07:35:56;;;;;;;12.85;11.55;;;17.60;72.50;;;;;;4933688;29;20430;-72
2021/09/08 07:38:28;;;;;;;13.40;12.25;;;17.70;73.80;;;;;;4932442;29;20162;-71
2021/09/08 07:41:00;;;;;;;12.75;11.63;;;17.90;71.00;;;;;;4931469;29;20064;-73
2021/09/08 07:43:32;;;;;;;13.27;12.18;;;17.90;68.20;;;;;;4933779;29;20105;-73
2021/09/08 07:46:04;;;;;;;13.02;12.02;;;18.10;71.60;;;;;;4918931;29;20484;-70
2021/09/08 07:48:37;;;;;;;13.48;12.40;;;18.10;72.70;;;;;;4934831;29;20112;-72
2021/09/08 07:51:09;;;;;;;13.90;12.63;;;18.20;69.60;;;;;;4934251;29;20048;-72
2021/09/08 07:53:41;;;;;;;14.43;13.07;;;18.40;68.40;;;;;;4935660;29;20040;-72
2021/09/08 07:56:13;;;;;;;13.95;12.85;;;18.40;70.80;;;;;;4936706;29;20132;-73
2021/09/08 07:58:45;;;;;;;14.07;12.88;;;18.50;70.90;;;;;;4937255;29;20469;-73
2021/09/08 08:01:17;;;;;;;13.75;12.65;;;18.60;67.80;;;;;;4934817;29;20044;-73
2021/09/08 08:03:49;;;;;;;14.05;12.85;;;18.60;66.00;;;;;;4935540;29;20132;-73
2021/09/08 08:06:21;;;;;;;14.00;12.85;;;18.70;68.30;;;;;;4936015;29;20079;-73
2021/09/08 08:08:53;;;;;;;13.27;12.18;;;18.80;65.70;;;;;;4937339;29;20043;-73
2021/09/08 08:11:25;;;;;;;13.15;12.02;;;19.00;68.00;;;;;;4935994;29;20055;-72
2021/09/08 08:13:57;;;;;;;13.80;12.50;;;19.10;66.10;;;;;;4929784;29;20674;-73
2021/09/08 08:16:35;;;;;;;13.52;12.43;;;19.10;65.50;;;;;;4936085;29;20051;-72
2021/09/08 08:19:07;;;;;;;12.82;11.82;;;19.20;64.60;;;;;;4934802;29;20832;-73
2021/09/08 08:21:39;;;;;;;14.15;12.75;;;19.30;64.10;;;;;;4935917;29;20055;-74
2021/09/08 08:24:16;;;;;;;13.25;12.00;;;19.40;64.50;;;;;;4934532;29;20048;-73
2021/09/08 08:26:48;;;;;;;13.40;12.20;;;19.50;65.00;;;;;;4935382;29;20116;-73
2021/09/08 08:29:20;;;;;;;13.15;11.82;;;19.60;65.30;;;;;;4937518;29;20075;-73
2021/09/08 08:31:52;;;;;;;13.52;12.32;;;19.80;69.80;;;;;;4934630;29;20079;-73
2021/09/08 08:34:24;;;;;;;12.85;11.85;;;19.90;68.80;;;;;;4936357;29;20047;-73
2021/09/08 08:36:56;;;;;;;13.57;12.40;;;20.00;70.60;;;;;;4937652;29;20086;-72
2021/09/08 08:39:28;;;;;;;13.82;12.65;;;20.10;65.20;;;;;;4937341;29;20079;-72
2021/09/08 08:42:00;;;;;;;13.80;12.70;;;20.20;67.30;;;;;;4934123;29;20143;-73
2021/09/08 08:44:34;;;;;;;14.43;13.20;;;20.20;67.50;;;;;;4936735;29;20052;-73
2021/09/08 08:47:06;;;;;;;13.40;12.25;;;20.30;67.60;;;;;;4933749;29;20129;-73
2021/09/08 08:49:44;;;;;;;15.05;13.85;;;20.40;66.70;;;;;;4935299;29;20052;-73
2021/09/08 08:52:16;;;;;;;14.95;13.75;;;20.50;66.20;;;;;;4941861;29;20059;-72
2021/09/08 08:54:48;;;;;;;14.68;13.27;;;20.60;66.80;;;;;;4936139;29;20043;-73
2021/09/08 08:57:22;;;;;;;14.07;12.98;;;20.70;65.10;;;;;;4936422;29;20062;-73
2021/09/08 08:59:54;;;;;;;14.13;12.93;;;20.70;65.40;;;;;;4934779;29;20174;-71
2021/09/08 09:02:30;;;;;;;13.75;12.55;;;20.80;65.10;;;;;;4941238;29;20130;-73
2021/09/08 09:05:05;;;;;;;13.80;12.73;;;20.90;64.50;;;;;;4942743;29;20055;-72
2021/09/08 09:07:43;;;;;;;14.35;13.15;;;21.00;62.00;;;;;;4935402;29;20062;-73
2021/09/08 09:10:15;;;;;;;14.55;13.45;;;21.10;64.50;;;;;;4935560;29;20051;-72
2021/09/08 09:12:48;;;;;;;14.85;13.50;;;21.20;63.70;;;;;;4934156;29;20052;-74
2021/09/08 09:15:22;;;;;;;14.38;13.27;;;21.20;64.00;;;;;;4935862;29;20126;-73
2021/09/08 09:17:56;;;;;;;14.63;13.43;;;21.40;65.10;;;;;;4935623;29;20060;-72
2021/09/08 09:20:30;;;;;;;15.05;13.68;;;21.40;64.40;;;;;;4933261;29;20051;-73
2021/09/08 09:23:05;;;;;;;14.25;13.15;;;21.40;64.00;;;;;;4936001;29;20043;-73
2021/09/08 09:25:39;;;;;;;14.75;13.43;;;21.60;64.70;;;;;;4931442;29;20044;-73
2021/09/08 09:28:11;;;;;;;14.98;13.77;;;21.60;63.90;;;;;;4932920;29;20775;-73
2021/09/08 09:30:43;;;;;;;15.55;14.25;;;21.60;64.90;;;;;;4934086;29;20047;-72
2021/09/08 09:33:31;;;;;;;15.73;14.25;;;21.70;63.90;;;;;;4935135;29;20051;-74
2021/09/08 09:36:21;;;;;;;15.93;14.63;;;21.80;66.70;;;;;;4933856;29;20523;-74
2021/09/08 09:38:54;;;;;;;15.43;14.02;;;21.80;66.40;;;;;;4935972;29;20052;-73
2021/09/08 09:41:26;;;;;;;15.90;14.55;;;21.90;66.60;;;;;;4933687;29;20633;-73
2021/09/08 09:44:11;;;;;;;16.13;14.55;;;22.10;66.20;;;;;;4933836;29;20507;-73
2021/09/08 09:46:45;;;;;;;16.20;14.95;;;22.20;66.40;;;;;;4935699;29;20058;-72
2021/09/08 09:49:17;;;;;;;16.30;15.00;;;22.20;66.60;;;;;;4936253;29;20185;-73
2021/09/08 09:51:55;;;;;;;15.98;14.50;;;22.30;66.00;;;;;;4933728;29;20051;-73
2021/09/08 09:54:27;;;;;;;16.48;15.07;;;22.40;66.20;;;;;;4934551;29;20743;-73
2021/09/08 09:57:01;;;;;;;15.90;14.50;;;22.40;66.40;;;;;;4934452;29;20561;-73
2021/09/08 09:59:33;;;;;;;16.25;14.95;;;22.50;64.10;;;;;;4934380;29;20075;-73
2021/09/08 10:02:06;;;;;;;16.65;15.18;;;22.50;66.20;;;;;;4932939;29;20132;-73
2021/09/08 10:04:39;;;;;;;16.50;15.20;;;22.60;65.10;;;;;;4936539;29;20061;-72
2021/09/08 10:07:12;;;;;;;16.38;15.18;;;22.70;65.30;;;;;;4931221;29;20105;-73
2021/09/08 10:09:50;;;;;;;16.95;15.45;;;22.70;64.40;;;;;;4934633;29;20143;-72
2021/09/08 10:12:28;;;;;;;17.13;15.73;;;22.80;63.90;;;;;;4932464;29;20105;-73
2021/09/08 10:15:01;;;;;;;17.55;16.05;;;22.80;65.20;;;;;;4918484;29;20829;-74
2021/09/08 10:17:40;;;;;;;17.25;15.77;;;22.90;64.60;;;;;;4932011;29;20643;-73
2021/09/08 10:20:20;;;;;;;16.88;15.50;;;23.00;62.70;;;;;;4932370;29;20131;-72
2021/09/08 10:22:52;;;;;;;17.38;15.27;;;23.00;65.30;;;;;;4933657;29;20175;-73
2021/09/08 10:25:26;;;;;;;16.92;15.48;;;23.10;63.60;;;;;;4940952;29;20111;-73
2021/09/08 10:27:58;;;;;;;16.48;15.07;;;23.10;63.80;;;;;;4932380;29;20078;-72
2021/09/08 10:30:43;;;;;;;16.50;15.00;;;23.10;65.00;;;;;;4933866;29;20047;-73
2021/09/08 10:33:16;;;;;;;16.92;15.48;;;23.30;63.90;;;;;;4934184;29;20047;-73
2021/09/08 10:35:48;;;;;;;16.48;15.27;;;23.40;63.30;;;;;;4932404;29;20048;-74
2021/09/08 10:38:25;;;;;;;16.52;15.23;;;23.50;65.80;;;;;;4933218;29;20047;-73
2021/09/08 10:40:57;;;;;;;17.08;15.73;;;23.70;64.60;;;;;;4932834;29;20048;-73
2021/09/08 10:43:35;;;;;;;16.63;15.38;;;23.70;62.20;;;;;;4932111;29;20126;-73
2021/09/08 10:46:10;;;;;;;19.73;18.17;;;23.70;62.30;;;;;;4932929;29;20130;-73
2021/09/08 10:48:45;;;;;;;17.42;16.13;;;23.80;61.00;;;;;;4932167;29;20051;-73
2021/09/08 10:51:36;;;;;;;17.08;15.77;;;23.90;63.10;;;;;;4932889;29;20189;-74
2021/09/08 10:54:08;;;;;;;17.15;15.75;;;23.90;62.10;;;;;;4938662;29;20511;-74
2021/09/08 10:56:42;;;;;;;17.02;15.70;;;23.90;61.20;;;;;;4931113;29;20083;-74
2021/09/08 10:59:14;;;;;;;17.48;15.98;;;24.00;61.80;;;;;;4907246;29;20685;-75
2021/09/08 11:01:50;;;;;;;17.65;16.08;;;24.10;62.00;;;;;;4932349;29;20132;-74
2021/09/08 11:04:25;;;;;;;16.50;15.25;;;24.10;60.60;;;;;;4933916;29;20591;-72
2021/09/08 11:07:02;;;;;;;17.95;16.40;;;24.10;60.20;;;;;;4932526;29;20944;-74
2021/09/08 11:09:34;;;;;;;17.65;16.08;;;24.10;59.90;;;;;;4939168;29;20055;-74
2021/09/08 11:12:06;;;;;;;17.13;15.73;;;24.10;60.40;;;;;;4932916;29;20055;-75
2021/09/08 11:14:49;;;;;;;16.90;15.40;;;24.20;59.50;;;;;;4932701;29;20138;-74
2021/09/08 11:17:25;;;;;;;16.52;15.23;;;24.20;58.10;;;;;;4931931;29;20058;-74
2021/09/08 11:20:03;;;;;;;17.70;16.20;;;24.30;57.40;;;;;;4929811;29;20047;-73
2021/09/08 11:22:36;;;;;;;16.25;15.05;;;24.40;58.00;;;;;;4933976;29;20136;-74
2021/09/08 11:25:12;;;;;;;16.23;14.82;;;24.40;58.30;;;;;;4937899;29;20507;-74
2021/09/08 11:27:50;;;;;;;15.93;14.63;;;24.50;58.00;;;;;;4935708;29;20085;-74
2021/09/08 11:30:22;;;;;;;16.85;15.55;;;24.60;57.70;;;;;;4934455;29;20190;-74
2021/09/08 11:32:57;;;;;;;16.55;15.30;;;24.60;57.30;;;;;;4935591;29;20086;-74
2021/09/08 11:35:39;;;;;;;16.48;15.18;;;24.70;56.70;;;;;;4933273;29;20160;-73
2021/09/08 11:38:21;;;;;;;16.40;15.20;;;24.70;57.50;;;;;;4936433;29;20521;-72
2021/09/08 11:41:01;;;;;;;16.63;15.43;;;24.70;58.40;;;;;;4935582;29;20127;-73
2021/09/08 11:43:42;;;;;;;16.15;14.85;;;24.80;57.80;;;;;;4938143;29;20498;-72
2021/09/08 11:46:21;;;;;;;16.15;14.75;;;24.80;55.60;;;;;;4934136;29;20464;-73
2021/09/08 11:49:10;;;;;;;15.82;14.73;;;24.90;55.90;;;;;;4938018;29;20055;-72
2021/09/08 11:51:44;;;;;;;16.13;14.87;;;24.90;55.50;;;;;;4923510;30;20138;-72
2021/09/08 11:54:24;;;;;;;16.38;15.18;;;24.90;55.40;;;;;;4938380;29;20511;-73
2021/09/08 11:56:57;;;;;;;;;;;24.90;54.10;;;;;;4933775;29;20062;-73
2021/09/08 11:59:33;;;;;;;16.10;14.82;;;25.00;55.10;;;;;;4942335;29;20372;-71
2021/09/08 12:02:05;;;;;;;16.38;15.15;;;25.00;53.00;;;;;;4933681;29;20844;-70
2021/09/08 12:04:37;;;;;;;16.55;15.35;;;25.00;54.10;;;;;;4935517;29;20054;-70
2021/09/08 12:07:09;;;;;;;16.40;15.18;;;25.10;54.70;;;;;;4919253;30;20124;-72
2021/09/08 12:09:43;;;;;;;16.40;15.20;;;25.10;54.40;;;;;;4934219;29;21701;-73
2021/09/08 12:12:18;;;;;;;16.20;15.05;;;25.20;54.50;;;;;;4950264;29;20063;-73
2021/09/08 12:14:50;;;;;;;16.13;14.82;;;25.20;54.10;;;;;;4935333;29;20047;-73
2021/09/08 12:17:25;;;;;;;16.58;15.30;;;25.30;56.10;;;;;;4933792;29;20109;-74
2021/09/08 12:20:03;;;;;;;17.63;16.23;;;25.30;55.70;;;;;;4935290;29;20051;-72
2021/09/08 12:22:43;;;;;;;18.63;17.02;;;25.40;56.60;;;;;;4935859;29;20142;-72
2021/09/08 12:25:19;;;;;;;17.92;16.52;;;25.50;55.30;;;;;;4936891;29;20054;-73
2021/09/08 12:27:53;;;;;;;17.23;15.98;;;25.50;53.20;;;;;;4934148;29;20552;-72
2021/09/08 12:30:25;;;;;;;17.05;15.75;;;25.50;53.40;;;;;;4933801;29;20044;-73
2021/09/08 12:33:05;;;;;;;17.67;16.27;;;25.50;54.90;;;;;;4934897;29;20059;-73
2021/09/08 12:35:43;;;;;;;18.15;16.52;;;25.50;54.00;;;;;;4933317;29;20951;-73
2021/09/08 12:38:32;;;;;;;17.35;16.08;;;25.50;54.20;;;;;;4938220;29;20142;-72
2021/09/08 12:41:16;;;;;;;17.50;16.10;;;25.50;52.00;;;;;;4934971;29;20125;-73
2021/09/08 12:43:56;;;;;;;17.95;16.55;;;25.50;54.80;;;;;;4919591;29;20047;-73
2021/09/08 12:46:44;;;;;;;17.23;15.90;;;25.60;54.70;;;;;;4934878;29;20052;-73
2021/09/08 12:49:26;;;;;;;17.67;16.38;;;25.60;53.50;;;;;;4937134;29;20063;-73
2021/09/08 12:51:58;;;;;;;18.45;16.85;;;25.60;53.80;;;;;;4933288;29;20136;-73
2021/09/08 12:54:30;;;;;;;17.55;16.25;;;25.60;53.30;;;;;;4932864;29;20518;-73
2021/09/08 12:57:04;;;;;;;18.00;16.60;;;25.60;55.90;;;;;;4935593;29;20093;-74
2021/09/08 12:59:37;;;;;;;19.10;17.60;;;25.80;56.20;;;;;;4919152;29;20051;-73